Time;durP1;ratioP1;P1;durP2;ratioP2;P2;SDS_P1;SDS_P2;PMS_P1;PMS_P2;Temp;Humidity;BMP_temperature;BMP_pressure;BME280_temperature;BME280_humidity;BME280_pressure;Samples;Min_cycle;Max_cycle;Signal;HPM_P1;HPM_P2
2023/07/10 00:02:29;;;;;;;;;;;19.70;99.90;;;;;;20984362;22;19924;-74
2023/07/10 00:12:30;;;;;;;;;;;19.80;99.90;;;;;;20989212;28;19963;-74
2023/07/10 00:22:30;;;;;;;;;;;19.90;99.90;;;;;;20909166;28;20303;-74
2023/07/10 00:32:31;;;;;;;;;;;20.20;99.90;;;;;;20914114;28;19957;-74
2023/07/10 00:42:32;;;;;;;;;;;20.00;99.90;;;;;;20936526;28;19916;-73
2023/07/10 00:52:38;;;;;;;;;;;19.70;99.90;;;;;;20899392;28;19952;-74
2023/07/10 01:02:39;;;;;;;;;;;20.00;99.90;;;;;;20907616;28;19963;-74
2023/07/10 01:12:41;;;;;;;;;;;19.80;99.90;;;;;;20903749;28;19913;-74
2023/07/10 01:22:42;;;;;;;;;;;19.70;99.90;;;;;;20890069;28;20367;-73
2023/07/10 01:32:43;;;;;;;;;;;19.60;99.90;;;;;;20902274;28;19959;-74
2023/07/10 01:42:44;;;;;;;;;;;19.50;99.90;;;;;;20915789;28;19976;-74
2023/07/10 01:52:44;;;;;;;;;;;19.60;99.90;;;;;;20915152;28;19952;-73
2023/07/10 02:02:45;;;;;;;;;;;19.40;99.90;;;;;;20923935;28;20320;-73
2023/07/10 02:12:46;;;;;;;;;;;19.50;99.90;;;;;;20982221;28;19913;-74
2023/07/10 02:22:47;;;;;;;;;;;19.70;99.90;;;;;;20887977;28;19942;-74
2023/07/10 02:32:49;;;;;;;;;;;19.60;99.90;;;;;;20911592;28;19919;-74
2023/07/10 02:42:49;;;;;;;;;;;19.60;99.90;;;;;;20902769;28;19960;-74
2023/07/10 02:52:50;;;;;;;;;;;19.30;99.90;;;;;;20975959;28;20278;-74
2023/07/10 03:02:54;;;;;;;;;;;19.20;99.90;;;;;;20973999;28;19916;-73
2023/07/10 03:12:55;;;;;;;;;;;19.00;99.90;;;;;;20991337;28;19924;-74
2023/07/10 03:22:55;;;;;;;;;;;19.10;99.90;;;;;;20907248;28;20409;-73
2023/07/10 03:32:56;;;;;;;;;;;19.00;99.90;;;;;;20850787;28;19960;-73
2023/07/10 03:42:57;;;;;;;;;;;18.80;99.90;;;;;;20846743;28;19987;-73
2023/07/10 03:52:57;;;;;;;;;;;19.00;99.90;;;;;;20925657;28;19948;-74
2023/07/10 04:02:58;;;;;;;;;;;18.80;99.90;;;;;;20858045;28;20430;-73
2023/07/10 04:12:58;;;;;;;;;;;18.70;99.90;;;;;;20901471;28;19945;-76
2023/07/10 04:22:59;;;;;;;;;;;18.90;99.90;;;;;;20846766;28;20048;-76
2023/07/10 04:33:00;;;;;;;;;;;18.90;99.90;;;;;;20866992;28;19919;-75
2023/07/10 04:43:04;;;;;;;;;;;19.20;99.90;;;;;;20931566;28;19917;-76
2023/07/10 04:53:05;;;;;;;;;;;19.40;99.90;;;;;;21001703;28;19920;-76
2023/07/10 05:03:06;;;;;;;;;;;19.70;99.90;;;;;;21000835;28;19923;-75
2023/07/10 05:13:06;;;;;;;;;;;19.90;99.90;;;;;;20981837;28;19990;-74
2023/07/10 05:23:07;;;;;;;;;;;20.40;99.90;;;;;;21000356;28;20305;-73
2023/07/10 05:33:07;;;;;;;;;;;20.80;99.90;;;;;;20997839;28;19947;-72
2023/07/10 05:43:08;;;;;;;;;;;20.30;99.90;;;;;;20993477;28;20003;-73
2023/07/10 05:53:09;;;;;;;;;;;20.10;99.90;;;;;;20996216;28;19912;-72
2023/07/10 06:03:09;;;;;;;;;;;19.70;99.90;;;;;;20999901;22;19925;-74
2023/07/10 06:13:10;;;;;;;;;;;19.60;99.90;;;;;;20883218;28;19913;-74
2023/07/10 06:23:11;;;;;;;;;;;19.90;99.90;;;;;;20913405;28;20462;-74
2023/07/10 06:33:11;;;;;;;;;;;20.30;99.90;;;;;;20912940;28;19913;-74
2023/07/10 06:43:12;;;;;;;;;;;20.10;99.90;;;;;;20915441;28;19962;-74
2023/07/10 06:53:13;;;;;;;;;;;20.40;99.90;;;;;;20910000;28;20379;-74
2023/07/10 07:03:13;;;;;;;;;;;20.60;99.90;;;;;;20910690;28;20243;-74
2023/07/10 07:13:14;;;;;;;;;;;20.90;99.90;;;;;;20910204;28;19962;-74
2023/07/10 07:23:15;;;;;;;;;;;21.00;99.90;;;;;;20892810;28;19917;-74
2023/07/10 07:33:17;;;;;;;;;;;21.40;99.90;;;;;;20900396;28;19913;-73
2023/07/10 07:43:17;;;;;;;;;;;21.80;99.90;;;;;;20907728;28;20002;-74
2023/07/10 07:53:18;;;;;;;;;;;22.50;99.90;;;;;;20898075;28;19917;-74
2023/07/10 08:03:19;;;;;;;;;;;23.70;99.90;;;;;;20906720;28;19917;-74
2023/07/10 08:13:20;;;;;;;;;;;24.70;99.90;;;;;;20902171;28;19921;-74
2023/07/10 08:23:21;;;;;;;;;;;24.10;99.90;;;;;;20905019;28;20375;-73
2023/07/10 08:33:22;;;;;;;;;;;24.00;99.90;;;;;;20900420;28;19920;-73
2023/07/10 08:43:28;;;;;;;;;;;23.50;99.90;;;;;;20913746;28;19975;-73
2023/07/10 08:53:31;;;;;;;;;;;23.50;99.90;;;;;;20920301;28;19935;-73
2023/07/10 09:03:32;;;;;;;;;;;23.70;99.90;;;;;;20918971;28;19917;-73
2023/07/10 09:13:40;;;;;;;;;;;23.80;99.90;;;;;;20903548;28;19916;-73
2023/07/10 09:23:40;;;;;;;;;;;24.50;99.90;;;;;;20918028;28;20015;-74
2023/07/10 09:33:51;;;;;;;;;;;25.40;99.90;;;;;;20917697;28;20413;-74
2023/07/10 09:43:56;;;;;;;;;;;26.40;99.90;;;;;;20918899;28;19924;-74
2023/07/10 09:54:04;;;;;;;;;;;26.80;99.90;;;;;;20903811;28;19920;-73
2023/07/10 10:04:04;;;;;;;;;;;27.30;99.90;;;;;;20908206;28;19932;-74
2023/07/10 10:14:08;;;;;;;;;;;27.00;99.90;;;;;;20914342;28;19920;-74
2023/07/10 10:24:10;;;;;;;;;;;27.70;99.90;;;;;;20913481;28;19917;-74
2023/07/10 10:34:17;;;;;;;;;;;27.80;99.90;;;;;;20912518;28;19919;-75
2023/07/10 10:44:24;;;;;;;;;;;28.30;99.90;;;;;;20911924;28;20015;-75
2023/07/10 10:54:34;;;;;;;;;;;28.50;99.90;;;;;;20918777;28;19939;-76
2023/07/10 11:04:38;;;;;;;;;;;28.90;99.90;;;;;;20903556;28;20466;-76
2023/07/10 11:14:38;;;;;;;;;;;29.30;99.90;;;;;;20897918;28;19959;-76
2023/07/10 11:24:46;;;;;;;;;;;29.30;99.90;;;;;;20908872;28;20007;-75
2023/07/10 11:34:49;;;;;;;;;;;29.20;99.90;;;;;;20907197;28;19919;-76
2023/07/10 11:44:57;;;;;;;;;;;29.40;99.90;;;;;;20909975;28;19917;-76
2023/07/10 11:54:58;;;;;;;;;;;29.70;99.90;;;;;;20910232;28;19912;-75
2023/07/10 12:05:16;;;;;;;;;;;29.30;99.90;;;;;;21005138;22;19954;-76
2023/07/10 12:15:17;;;;;;;;;;;29.30;99.90;;;;;;21059966;28;19912;-76
2023/07/10 12:25:18;;;;;;;;;;;29.60;99.90;;;;;;20956534;28;19944;-74
2023/07/10 12:35:25;;;;;;;;;;;30.40;99.90;;;;;;20990342;28;20475;-74
2023/07/10 12:45:28;;;;;;;;;;;30.50;99.90;;;;;;21004135;28;20332;-74
2023/07/10 12:55:30;;;;;;;;;;;30.90;99.90;;;;;;21006967;28;19912;-74
2023/07/10 13:05:32;;;;;;;;;;;31.60;99.90;;;;;;20955577;28;19917;-74
2023/07/10 13:15:35;;;;;;;;;;;31.50;95.90;;;;;;20914984;28;20326;-76
2023/07/10 13:25:36;;;;;;;;;;;31.70;95.50;;;;;;20933470;28;20014;-75
2023/07/10 13:35:37;;;;;;;;;;;31.60;98.40;;;;;;20952041;28;19947;-76
2023/07/10 13:45:38;;;;;;;;;;;32.30;99.90;;;;;;20975540;28;19924;-76
2023/07/10 13:55:39;;;;;;;;;;;32.20;97.40;;;;;;20995108;28;19912;-77
2023/07/10 14:05:41;;;;;;;;;;;31.90;97.50;;;;;;20996191;28;19946;-76
2023/07/10 14:15:42;;;;;;;;;;;32.30;97.60;;;;;;20962837;28;19919;-76
2023/07/10 14:25:44;;;;;;;;;;;32.10;99.90;;;;;;20995786;28;19916;-76
2023/07/10 14:35:49;;;;;;;;;;;32.90;99.30;;;;;;20995356;28;19917;-76
2023/07/10 14:45:51;;;;;;;;;;;32.60;99.90;;;;;;20973331;28;20440;-76
2023/07/10 14:55:53;;;;;;;;;;;32.40;99.90;;;;;;20975724;28;19919;-76
2023/07/10 15:05:56;;;;;;;;;;;32.60;99.90;;;;;;20951697;28;20217;-76
2023/07/10 15:16:00;;;;;;;;;;;32.30;99.90;;;;;;20955107;28;19919;-76
2023/07/10 15:26:02;;;;;;;;;;;32.10;99.90;;;;;;20966380;28;20298;-76
2023/07/10 15:36:03;;;;;;;;;;;32.20;99.80;;;;;;20991881;28;19936;-74
2023/07/10 15:46:04;;;;;;;;;;;31.50;99.70;;;;;;20973682;28;19970;-74
2023/07/10 15:56:05;;;;;;;;;;;31.80;99.90;;;;;;20928344;28;19917;-76
2023/07/10 16:06:05;;;;;;;;;;;31.30;99.90;;;;;;20990556;28;19917;-74
2023/07/10 16:16:06;;;;;;;;;;;31.20;99.90;;;;;;20991275;28;19916;-74
2023/07/10 16:26:09;;;;;;;;;;;30.50;99.90;;;;;;20980417;28;20007;-74
2023/07/10 16:36:17;;;;;;;;;;;30.50;99.90;;;;;;20966922;28;19924;-74
2023/07/10 16:46:18;;;;;;;;;;;30.60;99.90;;;;;;20985991;28;19930;-74
2023/07/10 16:56:19;;;;;;;;;;;30.10;99.90;;;;;;21016380;28;19912;-74
2023/07/10 17:06:22;;;;;;;;;;;30.00;99.90;;;;;;21044511;28;19927;-74
2023/07/10 17:16:23;;;;;;;;;;;29.80;99.90;;;;;;20942299;28;19913;-74
2023/07/10 17:26:23;;;;;;;;;;;30.00;99.90;;;;;;20907529;28;19978;-74
2023/07/10 17:36:25;;;;;;;;;;;30.00;99.90;;;;;;20978088;28;19916;-74
2023/07/10 17:46:26;;;;;;;;;;;29.80;99.90;;;;;;21000782;28;20007;-74
2023/07/10 17:56:27;;;;;;;;;;;29.70;99.90;;;;;;20984442;28;19995;-74
2023/07/10 18:06:27;;;;;;;;;;;29.70;99.90;;;;;;20979260;28;19974;-74
2023/07/10 18:16:28;;;;;;;;;;;29.50;99.90;;;;;;20971775;28;19919;-74
2023/07/10 18:26:29;;;;;;;;;;;29.10;99.90;;;;;;20973723;28;19916;-73
2023/07/10 18:36:30;;;;;;;;;;;28.50;99.90;;;;;;20995549;28;19912;-74
2023/07/10 18:46:31;;;;;;;;;;;27.90;99.90;;;;;;20991300;28;19948;-73
2023/07/10 18:56:32;;;;;;;;;;;26.80;99.90;;;;;;20970878;28;20346;-74
2023/07/10 19:06:36;;;;;;;;;;;26.50;99.90;;;;;;20990209;28;19920;-73
2023/07/10 19:16:37;;;;;;;;;;;25.60;99.90;;;;;;20973533;28;19959;-74
2023/07/10 19:26:37;;;;;;;;;;;25.00;99.90;;;;;;20989668;28;19987;-74
2023/07/10 19:36:38;;;;;;;;;;;24.70;99.90;;;;;;20988772;28;19920;-75
2023/07/10 19:46:39;;;;;;;;;;;24.10;99.90;;;;;;20964189;28;19939;-75
2023/07/10 19:56:39;;;;;;;;;;;23.90;99.90;;;;;;20907350;28;19912;-75
2023/07/10 20:06:46;;;;;;;;;;;23.60;99.90;;;;;;20904448;28;19917;-76
2023/07/10 20:16:47;;;;;;;;;;;23.70;99.90;;;;;;20916566;28;20011;-76
2023/07/10 20:26:48;;;;;;;;;;;23.50;99.90;;;;;;20945576;28;19936;-74
2023/07/10 20:36:50;;;;;;;;;;;23.30;99.90;;;;;;20931945;28;20007;-75
2023/07/10 20:46:52;;;;;;;;;;;23.00;99.90;;;;;;20976920;28;19917;-75
2023/07/10 20:56:53;;;;;;;;;;;22.60;99.90;;;;;;20982505;28;19913;-75
2023/07/10 21:07:00;;;;;;;;;;;22.30;99.90;;;;;;20976101;28;19917;-75
2023/07/10 21:17:01;;;;;;;;;;;21.90;99.90;;;;;;20983397;28;19917;-75
2023/07/10 21:27:15;;;;;;;;;;;22.20;99.90;;;;;;20918930;28;20383;-75
2023/07/10 21:37:16;;;;;;;;;;;22.00;99.90;;;;;;20936260;28;19917;-75
2023/07/10 21:47:16;;;;;;;;;;;22.00;99.90;;;;;;20985507;28;19927;-75
2023/07/10 21:57:18;;;;;;;;;;;21.80;99.90;;;;;;20977774;28;19913;-76
2023/07/10 22:07:19;;;;;;;;;;;21.80;99.90;;;;;;20965104;28;19929;-75
2023/07/10 22:17:21;;;;;;;;;;;21.70;99.90;;;;;;20953527;28;19920;-75
2023/07/10 22:27:21;;;;;;;;;;;21.50;99.90;;;;;;20996269;28;19923;-75
2023/07/10 22:37:23;;;;;;;;;;;21.40;99.90;;;;;;20974670;28;20383;-75
2023/07/10 22:47:24;;;;;;;;;;;21.30;99.90;;;;;;20912122;28;19917;-75
2023/07/10 22:57:25;;;;;;;;;;;21.30;99.90;;;;;;20910026;28;20027;-76
2023/07/10 23:07:25;;;;;;;;;;;21.20;99.90;;;;;;20934679;28;20362;-75
2023/07/10 23:17:26;;;;;;;;;;;20.80;99.90;;;;;;20975202;28;19913;-75
2023/07/10 23:27:27;;;;;;;;;;;20.60;99.90;;;;;;20972265;28;19916;-75
2023/07/10 23:37:27;;;;;;;;;;;20.50;99.90;;;;;;20969910;28;19934;-76
2023/07/10 23:47:28;;;;;;;;;;;20.30;99.90;;;;;;20990677;28;19967;-75
2023/07/10 23:57:32;;;;;;;;;;;20.30;99.90;;;;;;20965095;28;19924;-75
